TGW525 VVPQ-WSSS
Flight info
| Callsign | TGW525 |
|---|---|
| Flight time | 1h 34m |
| Altitude | 37000 |
| Route | HOTUN1D ADBOP M753 IPRIX Q802 ELALO ELALO1A |
| Aircraft | A320/M-SDFGHIRWYZ/LB1 |
Departure
| Time | 2026-04-22 10:52 |
|---|---|
| Airport | Phú Quốc International Airport (VVPQ) |
Arrival
| Time | 2026-04-22 12:27 |
|---|---|
| Airport | Singapore Changi Airport (WSSS) |
| Time | Latitude | Longitude | Altitude | Speed | Heading |
|---|---|---|---|---|---|
| 2026-04-22 10:25 | 10.16420 | 103.99819 | 23 ft | 0 kts | 184° |
| 2026-04-22 10:39 | 10.16428 | 103.99820 | 24 ft | 2 kts | 184° |
| 2026-04-22 10:39 | 10.16444 | 103.99821 | 23 ft | 2 kts | 184° |
| 2026-04-22 10:39 | 10.16460 | 103.99823 | 24 ft | 2 kts | 184° |
| 2026-04-22 10:40 | 10.16476 | 103.99824 | 27 ft | 2 kts | 184° |
| 2026-04-22 10:40 | 10.16492 | 103.99825 | 24 ft | 2 kts | 198° |
| 2026-04-22 10:40 | 10.16506 | 103.99833 | 26 ft | 2 kts | 235° |
| 2026-04-22 10:40 | 10.16513 | 103.99848 | 28 ft | 2 kts | 279° |
| 2026-04-22 10:41 | 10.16510 | 103.99864 | 27 ft | 2 kts | 276° |
| 2026-04-22 10:41 | 10.16508 | 103.99880 | 26 ft | 2 kts | 277° |
| 2026-04-22 10:41 | 10.16507 | 103.99886 | 26 ft | 0 kts | 274° |
| 2026-04-22 10:45 | 10.16507 | 103.99885 | 26 ft | 1 kts | 274° |
| 2026-04-22 10:45 | 10.16508 | 103.99872 | 27 ft | 3 kts | 274° |
| 2026-04-22 10:45 | 10.16521 | 103.99847 | 27 ft | 5 kts | 314° |
| 2026-04-22 10:46 | 10.16555 | 103.99843 | 25 ft | 6 kts | 1° |
| 2026-04-22 10:46 | 10.16599 | 103.99844 | 23 ft | 7 kts | 3° |
| 2026-04-22 10:46 | 10.16655 | 103.99850 | 23 ft | 9 kts | 4° |
| 2026-04-22 10:46 | 10.16699 | 103.99853 | 24 ft | 10 kts | 4° |
| 2026-04-22 10:47 | 10.16758 | 103.99823 | 23 ft | 10 kts | 301° |
| 2026-04-22 10:47 | 10.16770 | 103.99725 | 23 ft | 12 kts | 275° |
| 2026-04-22 10:47 | 10.16775 | 103.99667 | 23 ft | 13 kts | 275° |
| 2026-04-22 10:47 | 10.16785 | 103.99567 | 23 ft | 15 kts | 277° |
| 2026-04-22 10:48 | 10.16796 | 103.99452 | 22 ft | 17 kts | 276° |
| 2026-04-22 10:48 | 10.16809 | 103.99323 | 22 ft | 19 kts | 276° |
| 2026-04-22 10:48 | 10.16823 | 103.99180 | 22 ft | 21 kts | 275° |
| 2026-04-22 10:48 | 10.16838 | 103.99021 | 21 ft | 24 kts | 275° |
| 2026-04-22 10:49 | 10.16854 | 103.98847 | 21 ft | 26 kts | 277° |
| 2026-04-22 10:49 | 10.16877 | 103.98664 | 21 ft | 27 kts | 276° |
| 2026-04-22 10:49 | 10.16893 | 103.98470 | 20 ft | 25 kts | 274° |
| 2026-04-22 10:49 | 10.16910 | 103.98285 | 20 ft | 27 kts | 276° |
| 2026-04-22 10:50 | 10.16928 | 103.98093 | 19 ft | 28 kts | 276° |
| 2026-04-22 10:50 | 10.16948 | 103.97942 | 19 ft | 15 kts | 277° |
| 2026-04-22 10:50 | 10.16972 | 103.97868 | 19 ft | 9 kts | 321° |
| 2026-04-22 10:50 | 10.17038 | 103.97873 | 18 ft | 11 kts | 14° |
| 2026-04-22 10:51 | 10.17106 | 103.97913 | 18 ft | 9 kts | 51° |
| 2026-04-22 10:51 | 10.17115 | 103.97999 | 18 ft | 30 kts | 94° |
| 2026-04-22 10:51 | 10.17069 | 103.98451 | 21 ft | 95 kts | 96° |
| 2026-04-22 10:51 | 10.16984 | 103.99299 | 22 ft | 143 kts | 95° |
| 2026-04-22 10:52 | 10.16848 | 104.00402 | 325 ft | 158 kts | 98° |
| 2026-04-22 10:52 | 10.16736 | 104.01510 | 933 ft | 158 kts | 97° |
| 2026-04-22 10:52 | 10.16632 | 104.02623 | 1534 ft | 159 kts | 98° |
| 2026-04-22 10:52 | 10.16524 | 104.03766 | 1871 ft | 172 kts | 97° |
| 2026-04-22 10:53 | 10.16399 | 104.05048 | 2089 ft | 194 kts | 97° |
| 2026-04-22 10:53 | 10.16257 | 104.06492 | 2353 ft | 217 kts | 97° |
| 2026-04-22 10:53 | 10.16099 | 104.08100 | 2691 ft | 241 kts | 96° |
| 2026-04-22 10:53 | 10.15927 | 104.09866 | 3166 ft | 258 kts | 96° |
| 2026-04-22 10:54 | 10.15751 | 104.11690 | 3978 ft | 261 kts | 95° |
| 2026-04-22 10:54 | 10.15351 | 104.13489 | 4790 ft | 267 kts | 115° |
| 2026-04-22 10:54 | 10.14127 | 104.14919 | 5522 ft | 276 kts | 144° |
| 2026-04-22 10:54 | 10.12448 | 104.15913 | 6279 ft | 282 kts | 149° |
| 2026-04-22 10:55 | 10.10713 | 104.16895 | 6810 ft | 289 kts | 149° |
| 2026-04-22 10:55 | 10.08956 | 104.17885 | 6965 ft | 289 kts | 149° |
| 2026-04-22 10:55 | 10.07181 | 104.18839 | 6997 ft | 289 kts | 156° |
| 2026-04-22 10:55 | 10.05232 | 104.19207 | 7003 ft | 292 kts | 182° |
| 2026-04-22 10:56 | 10.03257 | 104.18687 | 7004 ft | 293 kts | 208° |
| 2026-04-22 10:56 | 10.01525 | 104.17633 | 7005 ft | 294 kts | 211° |
| 2026-04-22 10:56 | 9.99785 | 104.16537 | 7004 ft | 295 kts | 212° |
| 2026-04-22 10:56 | 9.98041 | 104.15434 | 7003 ft | 295 kts | 212° |
| 2026-04-22 10:57 | 9.96296 | 104.14332 | 7004 ft | 296 kts | 212° |
| 2026-04-22 10:57 | 9.94545 | 104.13233 | 7003 ft | 296 kts | 211° |
| 2026-04-22 10:57 | 9.92797 | 104.12139 | 7003 ft | 295 kts | 211° |
| 2026-04-22 10:57 | 9.91053 | 104.11046 | 7004 ft | 295 kts | 211° |
| 2026-04-22 10:58 | 9.89310 | 104.09955 | 7006 ft | 294 kts | 212° |
| 2026-04-22 10:58 | 9.87570 | 104.08866 | 7006 ft | 294 kts | 211° |
| 2026-04-22 10:58 | 9.85831 | 104.07777 | 7006 ft | 294 kts | 211° |
| 2026-04-22 10:58 | 9.84092 | 104.06687 | 7009 ft | 294 kts | 211° |
| 2026-04-22 10:59 | 9.82323 | 104.05650 | 7011 ft | 293 kts | 203° |
| 2026-04-22 10:59 | 9.80378 | 104.05050 | 7035 ft | 294 kts | 187° |
| 2026-04-22 10:59 | 9.78322 | 104.04995 | 7695 ft | 296 kts | 176° |
| 2026-04-22 10:59 | 9.76260 | 104.05062 | 8496 ft | 298 kts | 177° |
| 2026-04-22 11:00 | 9.74184 | 104.05110 | 9236 ft | 301 kts | 178° |
| 2026-04-22 11:00 | 9.72078 | 104.05152 | 9934 ft | 304 kts | 178° |
| 2026-04-22 11:00 | 9.69901 | 104.05198 | 10206 ft | 324 kts | 177° |
| 2026-04-22 11:00 | 9.67586 | 104.05251 | 10332 ft | 346 kts | 177° |
| 2026-04-22 11:01 | 9.65141 | 104.05310 | 10692 ft | 356 kts | 178° |
| 2026-04-22 11:01 | 9.62643 | 104.05371 | 11253 ft | 360 kts | 177° |
| 2026-04-22 11:01 | 9.60133 | 104.05436 | 11816 ft | 363 kts | 177° |
| 2026-04-22 11:01 | 9.57588 | 104.05503 | 12394 ft | 366 kts | 177° |
| 2026-04-22 11:02 | 9.55037 | 104.05571 | 12965 ft | 369 kts | 177° |
| 2026-04-22 11:02 | 9.52459 | 104.05643 | 13558 ft | 371 kts | 177° |
| 2026-04-22 11:02 | 9.49878 | 104.05712 | 14060 ft | 373 kts | 177° |
| 2026-04-22 11:02 | 9.47268 | 104.05781 | 14573 ft | 375 kts | 178° |
| 2026-04-22 11:03 | 9.44655 | 104.05848 | 15080 ft | 377 kts | 178° |
| 2026-04-22 11:03 | 9.42027 | 104.05915 | 15580 ft | 380 kts | 178° |
| 2026-04-22 11:03 | 9.39372 | 104.05983 | 16080 ft | 382 kts | 178° |
| 2026-04-22 11:03 | 9.36711 | 104.06052 | 16572 ft | 384 kts | 178° |
| 2026-04-22 11:04 | 9.34023 | 104.06123 | 17059 ft | 387 kts | 178° |
| 2026-04-22 11:04 | 9.31332 | 104.06196 | 17552 ft | 389 kts | 178° |
| 2026-04-22 11:04 | 9.28614 | 104.06269 | 18049 ft | 391 kts | 178° |
| 2026-04-22 11:04 | 9.25890 | 104.06341 | 18464 ft | 394 kts | 178° |
| 2026-04-22 11:05 | 9.23171 | 104.06413 | 18868 ft | 396 kts | 178° |
| 2026-04-22 11:05 | 9.20409 | 104.06484 | 19280 ft | 399 kts | 178° |
| 2026-04-22 11:05 | 9.17615 | 104.06555 | 19673 ft | 402 kts | 177° |
| 2026-04-22 11:05 | 9.14813 | 104.06627 | 20065 ft | 405 kts | 177° |
| 2026-04-22 11:06 | 9.11979 | 104.06702 | 20463 ft | 408 kts | 177° |
| 2026-04-22 11:06 | 9.09140 | 104.06779 | 20870 ft | 410 kts | 176° |
| 2026-04-22 11:06 | 9.06283 | 104.06858 | 21272 ft | 413 kts | 176° |
| 2026-04-22 11:06 | 9.03395 | 104.06937 | 21665 ft | 415 kts | 176° |
| 2026-04-22 11:07 | 9.00503 | 104.07013 | 22040 ft | 418 kts | 177° |
| 2026-04-22 11:07 | 8.97581 | 104.07090 | 22418 ft | 420 kts | 176° |
| 2026-04-22 11:07 | 8.94654 | 104.07166 | 22786 ft | 423 kts | 176° |
| 2026-04-22 11:07 | 8.91698 | 104.07242 | 23151 ft | 425 kts | 176° |
| 2026-04-22 11:08 | 8.88737 | 104.07317 | 23490 ft | 428 kts | 176° |
| 2026-04-22 11:08 | 8.85748 | 104.07395 | 23786 ft | 430 kts | 176° |
| 2026-04-22 11:08 | 8.82754 | 104.07473 | 24072 ft | 432 kts | 176° |
| 2026-04-22 11:08 | 8.79732 | 104.07551 | 24376 ft | 435 kts | 176° |
| 2026-04-22 11:09 | 8.76707 | 104.07632 | 24658 ft | 437 kts | 176° |
| 2026-04-22 11:09 | 8.73653 | 104.07716 | 24943 ft | 439 kts | 176° |
| 2026-04-22 11:09 | 8.70595 | 104.07798 | 25223 ft | 442 kts | 176° |
| 2026-04-22 11:09 | 8.67508 | 104.07879 | 25506 ft | 444 kts | 176° |
| 2026-04-22 11:10 | 8.64417 | 104.07959 | 25772 ft | 446 kts | 176° |
| 2026-04-22 11:10 | 8.61296 | 104.08040 | 26059 ft | 449 kts | 176° |
| 2026-04-22 11:10 | 8.58173 | 104.08121 | 26327 ft | 451 kts | 176° |
| 2026-04-22 11:10 | 8.55019 | 104.08201 | 26591 ft | 453 kts | 176° |
| 2026-04-22 11:11 | 8.51864 | 104.08284 | 26857 ft | 456 kts | 176° |
| 2026-04-22 11:11 | 8.48692 | 104.08368 | 27111 ft | 458 kts | 176° |
| 2026-04-22 11:11 | 8.45490 | 104.08452 | 27372 ft | 460 kts | 176° |
| 2026-04-22 11:11 | 8.42288 | 104.08540 | 27641 ft | 463 kts | 176° |
| 2026-04-22 11:12 | 8.39055 | 104.08635 | 27910 ft | 465 kts | 176° |
| 2026-04-22 11:12 | 8.35819 | 104.08733 | 28181 ft | 467 kts | 176° |
| 2026-04-22 11:12 | 8.32553 | 104.08828 | 28452 ft | 470 kts | 176° |
| 2026-04-22 11:12 | 8.29283 | 104.08921 | 28719 ft | 472 kts | 176° |
| 2026-04-22 11:13 | 8.25983 | 104.09015 | 28988 ft | 475 kts | 176° |
| 2026-04-22 11:13 | 8.22683 | 104.09107 | 29287 ft | 476 kts | 176° |
| 2026-04-22 11:13 | 8.19368 | 104.09201 | 29682 ft | 475 kts | 175° |
| 2026-04-22 11:13 | 8.16071 | 104.09295 | 30042 ft | 475 kts | 175° |
| 2026-04-22 11:14 | 8.12760 | 104.09389 | 30365 ft | 475 kts | 175° |
| 2026-04-22 11:14 | 8.09467 | 104.09485 | 30700 ft | 474 kts | 175° |
| 2026-04-22 11:14 | 8.06162 | 104.09579 | 31061 ft | 473 kts | 175° |
| 2026-04-22 11:14 | 8.02882 | 104.09668 | 31442 ft | 472 kts | 175° |
| 2026-04-22 11:15 | 7.99593 | 104.09756 | 31802 ft | 471 kts | 175° |
| 2026-04-22 11:15 | 7.96323 | 104.09847 | 32175 ft | 471 kts | 175° |
| 2026-04-22 11:15 | 7.93058 | 104.09938 | 32539 ft | 470 kts | 175° |
| 2026-04-22 11:15 | 7.89784 | 104.10035 | 32909 ft | 469 kts | 175° |
| 2026-04-22 11:16 | 7.86527 | 104.10130 | 33286 ft | 469 kts | 175° |
| 2026-04-22 11:16 | 7.83261 | 104.10221 | 33661 ft | 468 kts | 175° |
| 2026-04-22 11:16 | 7.80013 | 104.10310 | 33995 ft | 468 kts | 175° |
| 2026-04-22 11:16 | 7.76757 | 104.10399 | 34320 ft | 466 kts | 175° |
| 2026-04-22 11:17 | 7.73525 | 104.10490 | 34672 ft | 465 kts | 176° |
| 2026-04-22 11:17 | 7.70292 | 104.10580 | 35028 ft | 463 kts | 176° |
| 2026-04-22 11:17 | 7.67090 | 104.10673 | 35380 ft | 460 kts | 176° |
| 2026-04-22 11:17 | 7.63887 | 104.10763 | 35728 ft | 458 kts | 176° |
| 2026-04-22 11:18 | 7.60712 | 104.10849 | 36067 ft | 456 kts | 176° |
| 2026-04-22 11:18 | 7.57578 | 104.10935 | 36402 ft | 454 kts | 176° |
| 2026-04-22 11:18 | 7.54390 | 104.11024 | 36732 ft | 453 kts | 177° |
| 2026-04-22 11:19 | 7.48070 | 104.11204 | 36836 ft | 458 kts | 177° |
| 2026-04-22 11:19 | 7.41680 | 104.11385 | 36835 ft | 460 kts | 177° |
| 2026-04-22 11:20 | 7.35317 | 104.11565 | 36827 ft | 460 kts | 177° |
| 2026-04-22 11:20 | 7.28941 | 104.11748 | 36835 ft | 458 kts | 177° |
| 2026-04-22 11:21 | 7.22580 | 104.11948 | 36832 ft | 457 kts | 176° |
| 2026-04-22 11:21 | 7.16227 | 104.12279 | 36835 ft | 457 kts | 175° |
| 2026-04-22 11:22 | 7.09873 | 104.12651 | 36842 ft | 457 kts | 175° |
| 2026-04-22 11:22 | 7.03517 | 104.13001 | 36845 ft | 457 kts | 176° |
| 2026-04-22 11:23 | 6.97192 | 104.13618 | 36847 ft | 456 kts | 170° |
| 2026-04-22 11:23 | 6.90938 | 104.14624 | 36850 ft | 456 kts | 170° |
| 2026-04-22 11:24 | 6.84675 | 104.15644 | 36852 ft | 456 kts | 169° |
| 2026-04-22 11:24 | 6.78416 | 104.16666 | 36851 ft | 455 kts | 169° |
| 2026-04-22 11:25 | 6.72158 | 104.17677 | 36849 ft | 455 kts | 170° |
| 2026-04-22 11:25 | 6.65899 | 104.18682 | 36849 ft | 455 kts | 170° |
| 2026-04-22 11:26 | 6.59642 | 104.19684 | 36853 ft | 455 kts | 170° |
| 2026-04-22 11:26 | 6.53397 | 104.20694 | 36856 ft | 454 kts | 170° |
| 2026-04-22 11:27 | 6.47164 | 104.21710 | 36848 ft | 454 kts | 170° |
| 2026-04-22 11:27 | 6.40930 | 104.22713 | 36848 ft | 453 kts | 171° |
| 2026-04-22 11:28 | 6.34744 | 104.23709 | 36853 ft | 453 kts | 171° |
| 2026-04-22 11:28 | 6.28521 | 104.24715 | 36855 ft | 453 kts | 171° |
| 2026-04-22 11:29 | 6.22305 | 104.25721 | 36852 ft | 452 kts | 171° |
| 2026-04-22 11:29 | 6.16093 | 104.26726 | 36849 ft | 452 kts | 171° |
| 2026-04-22 11:30 | 6.09882 | 104.27720 | 36848 ft | 452 kts | 171° |
| 2026-04-22 11:30 | 6.03676 | 104.28721 | 36854 ft | 451 kts | 171° |
| 2026-04-22 11:31 | 5.97474 | 104.29720 | 36854 ft | 451 kts | 171° |
| 2026-04-22 11:31 | 5.91287 | 104.30717 | 36849 ft | 451 kts | 171° |
| 2026-04-22 11:32 | 5.85083 | 104.31707 | 36852 ft | 451 kts | 171° |
| 2026-04-22 11:32 | 5.78883 | 104.32714 | 36855 ft | 451 kts | 171° |
| 2026-04-22 11:33 | 5.72690 | 104.33724 | 36852 ft | 451 kts | 171° |
| 2026-04-22 11:33 | 5.66495 | 104.34717 | 36850 ft | 451 kts | 171° |
| 2026-04-22 11:34 | 5.61342 | 104.35539 | 36849 ft | 451 kts | 171° |
| 2026-04-22 11:34 | 5.55147 | 104.36540 | 36849 ft | 451 kts | 171° |
| 2026-04-22 11:35 | 5.48955 | 104.37534 | 36849 ft | 450 kts | 171° |
| 2026-04-22 11:35 | 5.42766 | 104.38532 | 36850 ft | 450 kts | 171° |
| 2026-04-22 11:36 | 5.36577 | 104.39539 | 36850 ft | 450 kts | 171° |
| 2026-04-22 11:36 | 5.30386 | 104.40531 | 36851 ft | 450 kts | 171° |
| 2026-04-22 11:37 | 5.24196 | 104.41512 | 36851 ft | 450 kts | 171° |
| 2026-04-22 11:37 | 5.18007 | 104.42499 | 36850 ft | 450 kts | 171° |
| 2026-04-22 11:38 | 5.11821 | 104.43495 | 36850 ft | 450 kts | 171° |
| 2026-04-22 11:38 | 5.02560 | 104.44990 | 36854 ft | 449 kts | 171° |
| 2026-04-22 11:39 | 4.96386 | 104.45982 | 36855 ft | 449 kts | 171° |
| 2026-04-22 11:39 | 4.90217 | 104.46973 | 36854 ft | 449 kts | 171° |
| 2026-04-22 11:40 | 4.84044 | 104.47933 | 36852 ft | 449 kts | 172° |
| 2026-04-22 11:40 | 4.77849 | 104.48715 | 36852 ft | 449 kts | 173° |
| 2026-04-22 11:41 | 4.71650 | 104.49437 | 36850 ft | 448 kts | 173° |
| 2026-04-22 11:41 | 4.65501 | 104.50188 | 36850 ft | 448 kts | 173° |
| 2026-04-22 11:42 | 4.59317 | 104.50975 | 36852 ft | 448 kts | 173° |
| 2026-04-22 11:42 | 4.53094 | 104.51767 | 36852 ft | 448 kts | 173° |
| 2026-04-22 11:43 | 4.46928 | 104.52551 | 36851 ft | 448 kts | 173° |
| 2026-04-22 11:43 | 4.40747 | 104.53333 | 36851 ft | 448 kts | 173° |
| 2026-04-22 11:44 | 4.34566 | 104.54110 | 36851 ft | 447 kts | 173° |
| 2026-04-22 11:44 | 4.28428 | 104.54879 | 36849 ft | 448 kts | 173° |
| 2026-04-22 11:45 | 4.22247 | 104.55660 | 36847 ft | 448 kts | 173° |
| 2026-04-22 11:45 | 4.16060 | 104.56369 | 36848 ft | 447 kts | 174° |
| 2026-04-22 11:46 | 4.09860 | 104.56948 | 36849 ft | 447 kts | 175° |
| 2026-04-22 11:46 | 4.03658 | 104.57512 | 36849 ft | 447 kts | 175° |
| 2026-04-22 11:47 | 3.97459 | 104.58109 | 36848 ft | 447 kts | 174° |
| 2026-04-22 11:47 | 3.91262 | 104.58723 | 36847 ft | 447 kts | 174° |
| 2026-04-22 11:48 | 3.85066 | 104.59330 | 36845 ft | 447 kts | 174° |
| 2026-04-22 11:48 | 3.78868 | 104.59941 | 36847 ft | 447 kts | 174° |
| 2026-04-22 11:49 | 3.72672 | 104.60546 | 36850 ft | 447 kts | 174° |
| 2026-04-22 11:49 | 3.66516 | 104.61154 | 36843 ft | 447 kts | 174° |
| 2026-04-22 11:50 | 3.60330 | 104.61762 | 36848 ft | 447 kts | 174° |
| 2026-04-22 11:50 | 3.54141 | 104.62365 | 36852 ft | 447 kts | 174° |
| 2026-04-22 11:51 | 3.47953 | 104.62973 | 36850 ft | 447 kts | 174° |
| 2026-04-22 11:51 | 3.41765 | 104.63586 | 36851 ft | 447 kts | 174° |
| 2026-04-22 11:52 | 3.35577 | 104.64190 | 36850 ft | 447 kts | 174° |
| 2026-04-22 11:52 | 3.29392 | 104.64795 | 36850 ft | 447 kts | 174° |
| 2026-04-22 11:53 | 3.23208 | 104.65404 | 36852 ft | 446 kts | 174° |
| 2026-04-22 11:53 | 3.17028 | 104.66002 | 36852 ft | 446 kts | 174° |
| 2026-04-22 11:54 | 3.13943 | 104.66302 | 36735 ft | 447 kts | 174° |
| 2026-04-22 11:54 | 3.10844 | 104.66583 | 36481 ft | 446 kts | 178° |
| 2026-04-22 11:54 | 3.07760 | 104.66452 | 35890 ft | 447 kts | 189° |
| 2026-04-22 11:54 | 3.04732 | 104.65697 | 35176 ft | 450 kts | 200° |
| 2026-04-22 11:55 | 3.01897 | 104.64351 | 34360 ft | 456 kts | 211° |
| 2026-04-22 11:55 | 2.99337 | 104.62458 | 33421 ft | 463 kts | 223° |
| 2026-04-22 11:55 | 2.97080 | 104.60122 | 32477 ft | 468 kts | 226° |
| 2026-04-22 11:55 | 2.94858 | 104.57734 | 31699 ft | 470 kts | 226° |
| 2026-04-22 11:56 | 2.92633 | 104.55351 | 31160 ft | 465 kts | 226° |
| 2026-04-22 11:56 | 2.90431 | 104.52999 | 30541 ft | 463 kts | 226° |
| 2026-04-22 11:56 | 2.88258 | 104.50681 | 29951 ft | 461 kts | 226° |
| 2026-04-22 11:56 | 2.86050 | 104.48322 | 29273 ft | 458 kts | 226° |
| 2026-04-22 11:57 | 2.83910 | 104.46036 | 28680 ft | 453 kts | 226° |
| 2026-04-22 11:57 | 2.81771 | 104.43753 | 28087 ft | 448 kts | 226° |
| 2026-04-22 11:57 | 2.79645 | 104.41484 | 27496 ft | 444 kts | 226° |
| 2026-04-22 11:57 | 2.77544 | 104.39244 | 26912 ft | 440 kts | 226° |
| 2026-04-22 11:58 | 2.75453 | 104.37011 | 26327 ft | 437 kts | 226° |
| 2026-04-22 11:58 | 2.73390 | 104.34804 | 25763 ft | 433 kts | 226° |
| 2026-04-22 11:58 | 2.71334 | 104.32604 | 25207 ft | 430 kts | 226° |
| 2026-04-22 11:58 | 2.69302 | 104.30432 | 24668 ft | 427 kts | 226° |
| 2026-04-22 11:59 | 2.67275 | 104.28268 | 24145 ft | 424 kts | 226° |
| 2026-04-22 11:59 | 2.65271 | 104.26132 | 23636 ft | 421 kts | 226° |
| 2026-04-22 11:59 | 2.63255 | 104.23978 | 23077 ft | 418 kts | 226° |
| 2026-04-22 11:59 | 2.61301 | 104.21889 | 22584 ft | 413 kts | 226° |
| 2026-04-22 12:00 | 2.59351 | 104.19805 | 22091 ft | 409 kts | 226° |
| 2026-04-22 12:00 | 2.57403 | 104.17729 | 21618 ft | 406 kts | 226° |
| 2026-04-22 12:00 | 2.55480 | 104.15679 | 21189 ft | 401 kts | 226° |
| 2026-04-22 12:00 | 2.53603 | 104.13678 | 21065 ft | 387 kts | 225° |
| 2026-04-22 12:01 | 2.51571 | 104.12003 | 20951 ft | 373 kts | 210° |
| 2026-04-22 12:01 | 2.49256 | 104.10947 | 20808 ft | 360 kts | 196° |
| 2026-04-22 12:01 | 2.46833 | 104.10505 | 20510 ft | 353 kts | 182° |
| 2026-04-22 12:01 | 2.44380 | 104.10484 | 20140 ft | 350 kts | 179° |
| 2026-04-22 12:02 | 2.41968 | 104.10487 | 19869 ft | 346 kts | 179° |
| 2026-04-22 12:02 | 2.39564 | 104.10490 | 19596 ft | 344 kts | 180° |
| 2026-04-22 12:02 | 2.37184 | 104.10492 | 19326 ft | 342 kts | 180° |
| 2026-04-22 12:02 | 2.34799 | 104.10494 | 19052 ft | 341 kts | 180° |
| 2026-04-22 12:03 | 2.32433 | 104.10495 | 18780 ft | 340 kts | 180° |
| 2026-04-22 12:03 | 2.30069 | 104.10497 | 18509 ft | 339 kts | 180° |
| 2026-04-22 12:03 | 2.27723 | 104.10499 | 18241 ft | 337 kts | 180° |
| 2026-04-22 12:03 | 2.25388 | 104.10501 | 17953 ft | 335 kts | 180° |
| 2026-04-22 12:04 | 2.23051 | 104.10501 | 17676 ft | 335 kts | 180° |
| 2026-04-22 12:04 | 2.20731 | 104.10503 | 17413 ft | 334 kts | 180° |
| 2026-04-22 12:04 | 2.18402 | 104.10504 | 17137 ft | 334 kts | 180° |
| 2026-04-22 12:04 | 2.16090 | 104.10505 | 16869 ft | 332 kts | 180° |
| 2026-04-22 12:05 | 2.13777 | 104.10504 | 16614 ft | 331 kts | 180° |
| 2026-04-22 12:05 | 2.11483 | 104.10501 | 16351 ft | 330 kts | 180° |
| 2026-04-22 12:05 | 2.09190 | 104.10497 | 16090 ft | 328 kts | 180° |
| 2026-04-22 12:05 | 2.06915 | 104.10496 | 15829 ft | 327 kts | 180° |
| 2026-04-22 12:06 | 2.04641 | 104.10495 | 15569 ft | 325 kts | 181° |
| 2026-04-22 12:06 | 2.02400 | 104.10495 | 15392 ft | 318 kts | 180° |
| 2026-04-22 12:06 | 2.00211 | 104.10498 | 15268 ft | 309 kts | 180° |
| 2026-04-22 12:06 | 1.98092 | 104.10500 | 15150 ft | 301 kts | 181° |
| 2026-04-22 12:07 | 1.96021 | 104.10507 | 15030 ft | 293 kts | 180° |
| 2026-04-22 12:07 | 1.94005 | 104.10519 | 14817 ft | 289 kts | 181° |
| 2026-04-22 12:07 | 1.92002 | 104.10528 | 14550 ft | 288 kts | 181° |
| 2026-04-22 12:07 | 1.89989 | 104.10538 | 14237 ft | 288 kts | 181° |
| 2026-04-22 12:08 | 1.87994 | 104.10547 | 13996 ft | 286 kts | 181° |
| 2026-04-22 12:08 | 1.86010 | 104.10554 | 13773 ft | 283 kts | 181° |
| 2026-04-22 12:08 | 1.84055 | 104.10562 | 13545 ft | 280 kts | 181° |
| 2026-04-22 12:08 | 1.82131 | 104.10571 | 13316 ft | 279 kts | 181° |
| 2026-04-22 12:09 | 1.80172 | 104.10580 | 13097 ft | 278 kts | 181° |
| 2026-04-22 12:09 | 1.78262 | 104.10588 | 12871 ft | 277 kts | 181° |
| 2026-04-22 12:09 | 1.76316 | 104.10598 | 12669 ft | 276 kts | 181° |
| 2026-04-22 12:09 | 1.74421 | 104.10609 | 12453 ft | 275 kts | 181° |
| 2026-04-22 12:10 | 1.72515 | 104.10617 | 12246 ft | 274 kts | 181° |
| 2026-04-22 12:10 | 1.70608 | 104.10623 | 12034 ft | 273 kts | 181° |
| 2026-04-22 12:10 | 1.68691 | 104.10629 | 11819 ft | 272 kts | 181° |
| 2026-04-22 12:10 | 1.66825 | 104.10636 | 11612 ft | 271 kts | 181° |
| 2026-04-22 12:11 | 1.64924 | 104.10646 | 11400 ft | 270 kts | 180° |
| 2026-04-22 12:11 | 1.63074 | 104.10657 | 11188 ft | 268 kts | 180° |
| 2026-04-22 12:11 | 1.61191 | 104.10719 | 10993 ft | 268 kts | 173° |
| 2026-04-22 12:11 | 1.59368 | 104.10984 | 10772 ft | 267 kts | 173° |
| 2026-04-22 12:12 | 1.57509 | 104.11259 | 10531 ft | 266 kts | 173° |
| 2026-04-22 12:12 | 1.55701 | 104.11525 | 10309 ft | 265 kts | 173° |
| 2026-04-22 12:12 | 1.53859 | 104.11795 | 10076 ft | 264 kts | 173° |
| 2026-04-22 12:12 | 1.52068 | 104.12057 | 9909 ft | 262 kts | 173° |
| 2026-04-22 12:13 | 1.50261 | 104.12322 | 9793 ft | 263 kts | 173° |
| 2026-04-22 12:13 | 1.48446 | 104.12587 | 9696 ft | 263 kts | 173° |
| 2026-04-22 12:13 | 1.46642 | 104.12804 | 9496 ft | 259 kts | 180° |
| 2026-04-22 12:13 | 1.44863 | 104.12590 | 9313 ft | 257 kts | 197° |
| 2026-04-22 12:14 | 1.43210 | 104.11951 | 9117 ft | 255 kts | 204° |
| 2026-04-22 12:14 | 1.41571 | 104.11254 | 8916 ft | 255 kts | 204° |
| 2026-04-22 12:14 | 1.39939 | 104.10562 | 8719 ft | 254 kts | 204° |
| 2026-04-22 12:14 | 1.38317 | 104.09876 | 8516 ft | 253 kts | 204° |
| 2026-04-22 12:15 | 1.36720 | 104.09202 | 8388 ft | 246 kts | 204° |
| 2026-04-22 12:15 | 1.35171 | 104.08546 | 8259 ft | 237 kts | 204° |
| 2026-04-22 12:15 | 1.33672 | 104.07911 | 8072 ft | 232 kts | 204° |
| 2026-04-22 12:15 | 1.32188 | 104.07281 | 7812 ft | 231 kts | 204° |
| 2026-04-22 12:16 | 1.30720 | 104.06659 | 7633 ft | 227 kts | 203° |
| 2026-04-22 12:16 | 1.29292 | 104.06056 | 7501 ft | 218 kts | 203° |
| 2026-04-22 12:16 | 1.27939 | 104.05485 | 7383 ft | 205 kts | 204° |
| 2026-04-22 12:16 | 1.26635 | 104.04934 | 7142 ft | 202 kts | 204° |
| 2026-04-22 12:17 | 1.25340 | 104.04386 | 6960 ft | 202 kts | 204° |
| 2026-04-22 12:17 | 1.24044 | 104.03852 | 6790 ft | 202 kts | 201° |
| 2026-04-22 12:17 | 1.22728 | 104.03376 | 6557 ft | 200 kts | 200° |
| 2026-04-22 12:17 | 1.21419 | 104.02916 | 6326 ft | 200 kts | 200° |
| 2026-04-22 12:18 | 1.20108 | 104.02452 | 6098 ft | 199 kts | 200° |
| 2026-04-22 12:18 | 1.18803 | 104.01993 | 5810 ft | 199 kts | 200° |
| 2026-04-22 12:18 | 1.17503 | 104.01535 | 5515 ft | 198 kts | 200° |
| 2026-04-22 12:18 | 1.16203 | 104.01072 | 5226 ft | 198 kts | 200° |
| 2026-04-22 12:19 | 1.14910 | 104.00609 | 5055 ft | 197 kts | 200° |
| 2026-04-22 12:19 | 1.13619 | 104.00133 | 5028 ft | 198 kts | 205° |
| 2026-04-22 12:19 | 1.12612 | 103.99233 | 4959 ft | 199 kts | 241° |
| 2026-04-22 12:19 | 1.12339 | 103.98371 | 4766 ft | 197 kts | 266° |
| 2026-04-22 12:20 | 1.12564 | 103.97019 | 4482 ft | 196 kts | 287° |
| 2026-04-22 12:20 | 1.12993 | 103.95751 | 4188 ft | 196 kts | 290° |
| 2026-04-22 12:20 | 1.13451 | 103.94470 | 3917 ft | 196 kts | 290° |
| 2026-04-22 12:20 | 1.13926 | 103.93198 | 3632 ft | 195 kts | 297° |
| 2026-04-22 12:21 | 1.14851 | 103.92262 | 3300 ft | 192 kts | 336° |
| 2026-04-22 12:21 | 1.16116 | 103.91868 | 2978 ft | 190 kts | 348° |
| 2026-04-22 12:21 | 1.17404 | 103.91591 | 2637 ft | 189 kts | 349° |
| 2026-04-22 12:21 | 1.18647 | 103.91342 | 2540 ft | 173 kts | 354° |
| 2026-04-22 12:22 | 1.19788 | 103.91399 | 2539 ft | 160 kts | 17° |
| 2026-04-22 12:22 | 1.20804 | 103.91796 | 2551 ft | 156 kts | 24° |
| 2026-04-22 12:22 | 1.21798 | 103.92221 | 2553 ft | 155 kts | 25° |
| 2026-04-22 12:22 | 1.22787 | 103.92645 | 2552 ft | 155 kts | 24° |
| 2026-04-22 12:23 | 1.23797 | 103.93066 | 2331 ft | 157 kts | 24° |
| 2026-04-22 12:23 | 1.24792 | 103.93481 | 2124 ft | 155 kts | 24° |
| 2026-04-22 12:23 | 1.25744 | 103.93881 | 1934 ft | 148 kts | 23° |
| 2026-04-22 12:23 | 1.26677 | 103.94274 | 1753 ft | 141 kts | 24° |
| 2026-04-22 12:24 | 1.27580 | 103.94655 | 1566 ft | 139 kts | 24° |
| 2026-04-22 12:24 | 1.28460 | 103.95026 | 1356 ft | 137 kts | 24° |
| 2026-04-22 12:24 | 1.29335 | 103.95396 | 1183 ft | 137 kts | 24° |
| 2026-04-22 12:24 | 1.30211 | 103.95766 | 1003 ft | 136 kts | 23° |
| 2026-04-22 12:25 | 1.31069 | 103.96128 | 845 ft | 136 kts | 24° |
| 2026-04-22 12:25 | 1.31946 | 103.96498 | 682 ft | 137 kts | 23° |
| 2026-04-22 12:25 | 1.32829 | 103.96871 | 510 ft | 138 kts | 22° |
| 2026-04-22 12:25 | 1.33718 | 103.97246 | 316 ft | 140 kts | 21° |
| 2026-04-22 12:26 | 1.34616 | 103.97633 | 122 ft | 142 kts | 21° |
| 2026-04-22 12:26 | 1.35490 | 103.98001 | 31 ft | 118 kts | 21° |
| 2026-04-22 12:26 | 1.36012 | 103.98217 | 31 ft | 64 kts | 22° |
| 2026-04-22 12:26 | 1.36399 | 103.98379 | 30 ft | 57 kts | 22° |
| 2026-04-22 12:27 | 1.36647 | 103.98510 | 30 ft | 27 kts | 43° |
| 2026-04-22 12:27 | 1.36742 | 103.98616 | 30 ft | 12 kts | 58° |
| 2026-04-22 12:27 | 1.36717 | 103.98687 | 30 ft | 13 kts | 153° |
| 2026-04-22 12:27 | 1.36640 | 103.98674 | 30 ft | 12 kts | 203° |
| 2026-04-22 12:28 | 1.36562 | 103.98642 | 30 ft | 13 kts | 200° |
| 2026-04-22 12:28 | 1.36479 | 103.98607 | 30 ft | 8 kts | 202° |
| 2026-04-22 12:28 | 1.36429 | 103.98623 | 30 ft | 9 kts | 127° |
| 2026-04-22 12:28 | 1.36415 | 103.98665 | 30 ft | 5 kts | 120° |
| 2026-04-22 12:29 | 1.36397 | 103.98702 | 30 ft | 7 kts | 114° |
| 2026-04-22 12:29 | 1.36386 | 103.98755 | 30 ft | 9 kts | 70° |
| 2026-04-22 12:29 | 1.36442 | 103.98788 | 30 ft | 8 kts | 25° |
| 2026-04-22 12:29 | 1.36445 | 103.98838 | 30 ft | 9 kts | 118° |
| 2026-04-22 12:30 | 1.36414 | 103.98897 | 30 ft | 0 kts | 110° |